Time;durP1;ratioP1;P1;durP2;ratioP2;P2;SDS_P1;SDS_P2;PMS_P1;PMS_P2;Temp;Humidity;BMP_temperature;BMP_pressure;BME280_temperature;BME280_humidity;BME280_pressure;Samples;Min_cycle;Max_cycle;Signal;HPM_P1;HPM_P2
2021/03/28 00:01:11;;;;;;;17.80;5.03;;;4.00;82.20;;;;;;5051800;28;20653;-66
2021/03/28 00:03:53;;;;;;;24.30;5.73;;;4.00;82.50;;;;;;5051918;28;20037;-64
2021/03/28 00:06:36;;;;;;;20.90;5.70;;;4.00;82.70;;;;;;5051873;28;20041;-66
2021/03/28 00:09:23;;;;;;;20.53;5.30;;;4.00;82.80;;;;;;5051806;28;20033;-65
2021/03/28 00:11:55;;;;;;;19.23;4.87;;;4.00;83.10;;;;;;5051431;28;20033;-64
2021/03/28 00:14:45;;;;;;;27.48;5.78;;;4.00;83.20;;;;;;5052192;28;20037;-66
2021/03/28 00:17:19;;;;;;;18.67;5.23;;;4.00;83.40;;;;;;5051400;28;20025;-65
2021/03/28 00:20:12;;;;;;;21.40;5.07;;;4.00;83.30;;;;;;5034049;28;20098;-67
2021/03/28 00:22:51;;;;;;;20.67;4.97;;;4.00;83.50;;;;;;5036211;28;20056;-65
2021/03/28 00:25:31;;;;;;;20.77;5.53;;;4.00;83.60;;;;;;5051895;28;20120;-66
2021/03/28 00:28:01;;;;;;;18.83;5.05;;;4.00;83.80;;;;;;5051787;28;20044;-64
2021/03/28 00:30:38;;;;;;;18.23;5.23;;;4.00;83.80;;;;;;5052202;28;20040;-67
2021/03/28 00:33:06;;;;;;;18.27;4.87;;;4.00;83.60;;;;;;5051737;28;20033;-64
2021/03/28 00:35:52;;;;;;;19.60;5.37;;;4.00;84.00;;;;;;5017443;28;20402;-66
2021/03/28 00:38:27;;;;;;;18.33;4.73;;;4.00;84.00;;;;;;5051521;28;20116;-66
2021/03/28 00:41:11;;;;;;;22.57;5.27;;;4.00;84.20;;;;;;5051585;28;20041;-67
2021/03/28 00:44:17;;;;;;;24.70;5.50;;;4.00;84.10;;;;;;5051468;28;20037;-66
2021/03/28 00:46:42;;;;;;;19.23;5.17;;;4.00;84.20;;;;;;5051022;28;20056;-64
2021/03/28 00:49:20;;;;;;;23.23;4.90;;;4.00;84.40;;;;;;5051519;28;20497;-64
2021/03/28 00:51:50;;;;;;;19.70;4.63;;;4.00;84.50;;;;;;5033110;28;20405;-64
2021/03/28 00:54:20;;;;;;;24.23;5.70;;;4.00;84.30;;;;;;5033624;28;20044;-65
2021/03/28 00:56:51;;;;;;;25.67;5.70;;;4.00;84.50;;;;;;5050888;28;20047;-64
2021/03/28 00:59:36;;;;;;;24.23;5.60;;;4.00;84.40;;;;;;5051272;28;20123;-65
2021/03/28 01:02:26;;;;;;;23.63;5.30;;;4.00;84.50;;;;;;5017951;28;20037;-65
2021/03/28 01:05:14;;;;;;;19.50;4.80;;;3.90;84.60;;;;;;5033041;28;20076;-64
2021/03/28 01:07:43;;;;;;;21.53;4.63;;;3.90;84.50;;;;;;5051172;28;20530;-64
2021/03/28 01:10:46;;;;;;;19.93;5.07;;;3.90;84.50;;;;;;5050449;28;20033;-66
2021/03/28 01:13:49;;;;;;;25.40;5.43;;;3.90;84.50;;;;;;5032912;28;20040;-70
2021/03/28 01:16:21;;;;;;;17.13;4.70;;;3.90;84.60;;;;;;5050469;28;20571;-71
2021/03/28 01:19:32;;;;;;;19.73;4.73;;;3.90;84.50;;;;;;5050568;28;20048;-72
2021/03/28 01:22:30;;;;;;;20.10;4.83;;;3.90;84.50;;;;;;5050198;28;20489;-70
2021/03/28 01:25:07;;;;;;;19.23;4.97;;;3.90;84.60;;;;;;5006131;28;20048;-71
2021/03/28 01:27:45;;;;;;;22.43;5.17;;;3.90;85.00;;;;;;5033200;28;20041;-72
2021/03/28 01:30:17;;;;;;;18.20;4.57;;;3.90;85.00;;;;;;5050293;28;20041;-71
2021/03/28 01:32:48;;;;;;;19.87;5.00;;;3.90;84.70;;;;;;5050595;28;20175;-70
2021/03/28 01:35:17;;;;;;;17.17;4.68;;;3.90;84.90;;;;;;5032594;28;20051;-71
2021/03/28 01:37:46;;;;;;;20.10;5.13;;;3.90;85.10;;;;;;5050809;28;20494;-71
2021/03/28 01:40:23;;;;;;;17.10;4.93;;;3.90;85.10;;;;;;5050178;28;20455;-69
2021/03/28 01:42:58;;;;;;;18.67;5.40;;;4.00;85.10;;;;;;5050694;28;20047;-70
2021/03/28 01:45:41;;;;;;;26.57;5.20;;;4.00;85.10;;;;;;5050201;28;20048;-71
2021/03/28 01:48:45;;;;;;;19.97;4.70;;;4.00;85.20;;;;;;5050788;28;20053;-69
2021/03/28 01:51:55;;;;;;;17.30;4.90;;;4.00;85.10;;;;;;5049836;28;20037;-70
2021/03/28 01:54:39;;;;;;;17.45;5.32;;;4.00;85.00;;;;;;5050533;28;20048;-70
2021/03/28 01:57:23;;;;;;;28.23;4.93;;;4.00;84.90;;;;;;5050216;28;20057;-70
2021/03/28 01:59:59;;;;;;;20.43;5.80;;;4.00;84.80;;;;;;5032700;28;20126;-71
2021/03/28 02:02:42;;;;;;;27.27;5.17;;;4.00;84.80;;;;;;5032180;28;20256;-71
2021/03/28 02:05:23;;;;;;;22.17;4.97;;;4.00;84.90;;;;;;5050077;28;20132;-69
2021/03/28 02:07:55;;;;;;;16.60;4.57;;;3.90;84.80;;;;;;5050649;28;20489;-70
2021/03/28 02:10:45;;;;;;;19.70;4.70;;;3.90;84.70;;;;;;5050189;28;20162;-70
2021/03/28 02:13:38;;;;;;;21.48;5.90;;;3.90;84.90;;;;;;5032766;28;20067;-70
2021/03/28 02:16:19;;;;;;;20.77;4.43;;;3.90;84.90;;;;;;5015657;28;20051;-71
2021/03/28 02:19:06;;;;;;;22.67;5.10;;;3.90;84.90;;;;;;5050409;28;20136;-71
2021/03/28 02:21:48;;;;;;;21.93;5.00;;;3.90;84.80;;;;;;5031987;28;20040;-70
2021/03/28 02:24:30;;;;;;;23.40;4.50;;;3.90;84.90;;;;;;5016074;28;20489;-70
2021/03/28 02:27:26;;;;;;;21.97;4.87;;;3.80;84.90;;;;;;5032426;28;20033;-71
2021/03/28 02:30:05;;;;;;;17.90;4.50;;;3.90;85.00;;;;;;5053164;28;20093;-71
2021/03/28 02:32:56;;;;;;;16.97;4.43;;;3.90;85.20;;;;;;5054032;28;20033;-71
2021/03/28 02:35:37;;;;;;;;;;;3.90;85.20;;;;;;5036808;28;20485;-71
2021/03/28 02:38:15;;;;;;;17.25;4.35;;;3.90;85.00;;;;;;5054850;28;20508;-69
2021/03/28 02:41:07;;;;;;;18.80;4.17;;;3.90;85.10;;;;;;5054321;28;20029;-70
2021/03/28 02:43:44;;;;;;;23.20;4.70;;;4.00;85.20;;;;;;5054503;28;20071;-71
2021/03/28 02:46:45;;;;;;;22.60;4.80;;;4.00;85.10;;;;;;5083041;23;20048;-74
2021/03/28 02:49:48;;;;;;;18.70;4.40;;;4.00;84.90;;;;;;5094695;28;20032;-74
2021/03/28 02:52:41;;;;;;;18.57;4.43;;;3.90;84.90;;;;;;5094522;28;20115;-74
2021/03/28 02:55:30;;;;;;;22.80;4.30;;;4.00;84.90;;;;;;5060237;28;20040;-74
2021/03/28 02:58:28;;;;;;;18.60;4.10;;;4.00;84.80;;;;;;5056830;28;20480;-74
2021/03/28 03:01:29;;;;;;;19.10;4.30;;;4.00;84.70;;;;;;5050301;28;20033;-74
2021/03/28 03:04:13;;;;;;;22.00;5.68;;;4.00;84.60;;;;;;5073492;28;20036;-74
2021/03/28 03:06:57;;;;;;;18.70;3.63;;;4.00;84.80;;;;;;5055699;28;20047;-73
2021/03/28 03:09:29;;;;;;;16.57;4.50;;;4.00;85.00;;;;;;5055555;28;20044;-74
2021/03/28 03:12:23;;;;;;;16.73;3.60;;;4.00;84.90;;;;;;5055407;28;20020;-74
2021/03/28 03:15:19;;;;;;;18.03;3.80;;;4.10;84.70;;;;;;5073006;28;20123;-73
2021/03/28 03:18:00;;;;;;;16.73;4.20;;;4.00;84.30;;;;;;5072657;28;20037;-73
2021/03/28 03:20:58;;;;;;;19.05;3.95;;;4.00;84.40;;;;;;5073240;28;20086;-74
2021/03/28 03:23:45;;;;;;;19.03;4.17;;;4.00;84.30;;;;;;5073284;28;20039;-73
2021/03/28 03:26:22;;;;;;;16.50;4.00;;;4.10;84.50;;;;;;5054732;28;20407;-74
2021/03/28 03:29:12;;;;;;;14.13;3.33;;;4.10;84.40;;;;;;5073517;28;20117;-74
2021/03/28 03:31:56;;;;;;;17.17;4.05;;;4.10;84.30;;;;;;5072771;28;20040;-74
2021/03/28 03:34:40;;;;;;;15.10;3.53;;;4.10;84.30;;;;;;5073259;28;20044;-74
2021/03/28 03:37:38;;;;;;;20.23;4.20;;;4.20;84.50;;;;;;5072750;28;20043;-74
2021/03/28 03:40:15;;;;;;;19.23;3.90;;;4.20;84.40;;;;;;5053798;28;20081;-74
2021/03/28 03:43:05;;;;;;;15.80;3.63;;;4.30;84.40;;;;;;5038186;28;20499;-74
2021/03/28 03:45:42;;;;;;;16.83;3.70;;;4.30;84.30;;;;;;5054237;28;20412;-74
2021/03/28 03:48:10;;;;;;;13.30;3.77;;;4.40;84.20;;;;;;5072900;28;20583;-75
2021/03/28 03:51:14;;;;;;;17.60;3.77;;;4.40;84.00;;;;;;5072114;28;20082;-74
2021/03/28 03:53:47;;;;;;;15.50;3.83;;;4.50;83.90;;;;;;5072177;28;20488;-74
2021/03/28 03:56:34;;;;;;;16.33;4.10;;;4.50;83.70;;;;;;5072627;28;20044;-74
2021/03/28 03:59:30;;;;;;;13.97;3.97;;;4.60;83.50;;;;;;5072126;28;20064;-74
2021/03/28 04:02:08;;;;;;;19.13;4.03;;;4.60;83.30;;;;;;5046076;28;20048;-74
2021/03/28 04:04:53;;;;;;;17.57;4.23;;;4.60;83.10;;;;;;5072554;28;20484;-75
2021/03/28 04:07:51;;;;;;;14.83;3.93;;;4.60;83.00;;;;;;5071894;28;20039;-74
2021/03/28 04:10:20;;;;;;;20.73;4.33;;;4.60;82.60;;;;;;5054079;28;20045;-74
2021/03/28 04:13:08;;;;;;;13.90;3.97;;;4.60;82.40;;;;;;5054530;28;20493;-74
2021/03/28 04:16:01;;;;;;;14.10;4.03;;;4.60;82.30;;;;;;5071874;28;20110;-75
2021/03/28 04:18:50;;;;;;;16.27;3.53;;;4.60;82.30;;;;;;5053905;28;20516;-74
2021/03/28 04:21:21;;;;;;;17.10;4.20;;;4.60;82.40;;;;;;5029255;28;20146;-74
2021/03/28 04:24:11;;;;;;;13.40;3.30;;;4.60;82.60;;;;;;5053918;28;20032;-74
2021/03/28 04:26:55;;;;;;;19.23;3.57;;;4.70;82.50;;;;;;5071676;28;20032;-73
2021/03/28 04:29:22;;;;;;;14.43;3.63;;;4.70;82.20;;;;;;5072112;28;20139;-74
2021/03/28 04:32:40;;;;;;;12.77;3.40;;;4.70;82.00;;;;;;5071270;28;20054;-74
2021/03/28 04:35:25;;;;;;;17.90;3.70;;;4.80;81.90;;;;;;4990132;28;20112;-74
2021/03/28 04:38:08;;;;;;;16.93;3.47;;;4.80;81.80;;;;;;5071783;28;20037;-72
2021/03/28 04:40:58;;;;;;;15.23;3.57;;;4.80;81.70;;;;;;5054747;28;20097;-74
2021/03/28 04:43:57;;;;;;;13.57;3.60;;;4.90;81.50;;;;;;5072414;28;20036;-74
2021/03/28 04:47:12;;;;;;;15.30;3.60;;;4.90;81.20;;;;;;5071261;28;20063;-74
2021/03/28 04:50:12;;;;;;;16.27;4.03;;;4.90;81.00;;;;;;5009596;28;20477;-74
2021/03/28 04:52:56;;;;;;;15.20;3.47;;;4.90;80.80;;;;;;5008657;28;20103;-73
2021/03/28 04:56:00;;;;;;;13.73;3.70;;;4.90;80.70;;;;;;5047025;28;20326;-74
2021/03/28 04:58:54;;;;;;;18.57;4.10;;;4.90;80.60;;;;;;5071040;28;20124;-73
2021/03/28 05:01:19;;;;;;;19.03;3.87;;;4.90;80.60;;;;;;5036824;28;20446;-74
2021/03/28 05:04:23;;;;;;;16.27;4.07;;;4.90;80.50;;;;;;5070841;28;20032;-73
2021/03/28 05:06:59;;;;;;;16.90;3.57;;;4.90;80.40;;;;;;5052919;28;20476;-73
2021/03/28 05:10:02;;;;;;;16.77;3.83;;;4.90;80.40;;;;;;5071417;28;20032;-73
2021/03/28 05:13:02;;;;;;;12.90;4.17;;;4.90;80.30;;;;;;5070586;28;20064;-74
2021/03/28 05:15:57;;;;;;;14.50;3.80;;;5.00;80.30;;;;;;5070555;28;20029;-73
2021/03/28 05:18:54;;;;;;;15.87;4.10;;;5.00;80.20;;;;;;5070704;28;20068;-74
2021/03/28 05:21:45;;;;;;;14.27;3.80;;;5.00;80.00;;;;;;5036000;28;20029;-73
2021/03/28 05:24:38;;;;;;;14.30;3.70;;;5.10;80.00;;;;;;5071215;28;20577;-74
2021/03/28 05:27:22;;;;;;;15.93;4.03;;;5.10;79.90;;;;;;5070434;28;20086;-74
2021/03/28 05:30:22;;;;;;;14.53;3.67;;;5.10;79.80;;;;;;5071050;28;20058;-73
2021/03/28 05:33:27;;;;;;;22.75;5.03;;;5.20;79.70;;;;;;5070203;28;20037;-74
2021/03/28 05:36:35;;;;;;;15.97;3.70;;;5.30;79.70;;;;;;5052445;28;20033;-74
2021/03/28 05:39:15;;;;;;;14.17;3.53;;;5.30;79.60;;;;;;5021627;28;20036;-74
2021/03/28 05:42:10;;;;;;;19.30;3.95;;;5.30;79.60;;;;;;5070913;28;20045;-74
2021/03/28 05:45:19;;;;;;;16.47;4.13;;;5.40;79.50;;;;;;5052325;28;20428;-73
2021/03/28 05:48:10;;;;;;;16.83;3.53;;;5.50;79.40;;;;;;5070508;28;20492;-73
2021/03/28 05:50:49;;;;;;;16.95;4.10;;;5.50;79.30;;;;;;5070361;28;20040;-72
2021/03/28 05:53:33;;;;;;;14.87;3.57;;;5.60;79.10;;;;;;5071095;28;20128;-73
2021/03/28 05:56:24;;;;;;;12.00;3.47;;;5.70;79.00;;;;;;5076066;28;20044;-74
2021/03/28 05:59:43;;;;;;;12.55;3.42;;;5.70;78.80;;;;;;5075846;28;20040;-73
2021/03/28 06:02:21;;;;;;;15.70;3.97;;;5.80;78.60;;;;;;4980770;28;20042;-73
2021/03/28 06:05:15;;;;;;;12.03;3.03;;;5.80;78.30;;;;;;5055272;28;20043;-74
2021/03/28 06:08:20;;;;;;;18.40;3.70;;;5.80;78.10;;;;;;5078939;28;20455;-73
2021/03/28 06:11:08;;;;;;;15.87;3.80;;;5.90;78.10;;;;;;5060705;28;20036;-73
2021/03/28 06:14:02;;;;;;;17.30;3.63;;;5.90;78.20;;;;;;5075172;28;20039;-73
2021/03/28 06:16:51;;;;;;;15.23;3.33;;;6.00;78.20;;;;;;5056029;28;20082;-73
2021/03/28 06:19:54;;;;;;;16.37;3.80;;;6.20;78.20;;;;;;5065537;28;20048;-74
2021/03/28 06:22:55;;;;;;;12.50;3.60;;;6.30;77.80;;;;;;5073803;28;20067;-73
2021/03/28 06:25:33;;;;;;;17.63;3.80;;;6.40;77.20;;;;;;5073749;28;20036;-74
2021/03/28 06:28:46;;;;;;;14.00;3.80;;;6.50;77.00;;;;;;5056489;28;20558;-74
2021/03/28 06:31:54;;;;;;;14.20;3.63;;;6.60;77.00;;;;;;5055462;28;20041;-73
2021/03/28 06:34:38;;;;;;;16.60;3.70;;;6.60;76.80;;;;;;5044974;28;20052;-75
2021/03/28 06:37:32;;;;;;;12.70;4.20;;;6.70;76.40;;;;;;5074261;28;20033;-74
2021/03/28 06:40:26;;;;;;;15.67;4.27;;;6.70;76.00;;;;;;5073224;28;20396;-75
2021/03/28 06:43:26;;;;;;;15.53;3.90;;;6.80;75.90;;;;;;5039064;28;20400;-74
2021/03/28 06:46:23;;;;;;;16.88;3.72;;;6.80;75.60;;;;;;5055356;28;20102;-73
2021/03/28 06:49:30;;;;;;;13.27;3.90;;;6.80;75.60;;;;;;5047147;28;20124;-70
2021/03/28 06:52:14;;;;;;;19.10;4.10;;;6.90;75.30;;;;;;4994526;28;20041;-75
2021/03/28 06:54:45;;;;;;;17.93;4.00;;;6.90;75.10;;;;;;5011753;28;20040;-66
2021/03/28 06:57:14;;;;;;;11.80;3.80;;;7.00;74.80;;;;;;5049907;28;20032;-64
2021/03/28 06:59:58;;;;;;;16.20;4.13;;;7.00;74.60;;;;;;5073493;28;20411;-66
2021/03/28 07:03:03;;;;;;;16.67;4.10;;;7.00;74.30;;;;;;5054629;28;20062;-66
2021/03/28 07:05:49;;;;;;;12.20;4.17;;;7.00;74.30;;;;;;5038640;28;20045;-66
2021/03/28 07:08:48;;;;;;;16.07;4.07;;;7.10;74.20;;;;;;5055240;28;20060;-67
2021/03/28 07:11:45;;;;;;;15.23;4.13;;;7.20;74.30;;;;;;5038399;28;20048;-68
2021/03/28 07:14:40;;;;;;;12.13;4.13;;;7.30;74.00;;;;;;5073025;28;20053;-66
2021/03/28 07:17:53;;;;;;;15.53;3.97;;;7.30;73.50;;;;;;5072665;28;20052;-70
2021/03/28 07:20:46;;;;;;;16.20;4.40;;;7.40;73.80;;;;;;5072767;28;20040;-70
2021/03/28 07:23:12;;;;;;;12.03;3.60;;;7.40;73.40;;;;;;5072649;28;20036;-71
2021/03/28 07:26:06;;;;;;;14.57;4.10;;;7.50;72.90;;;;;;5073161;28;20374;-70
2021/03/28 07:28:59;;;;;;;17.13;4.40;;;7.50;73.00;;;;;;5049877;28;20043;-70
2021/03/28 07:31:33;;;;;;;12.37;3.73;;;7.60;72.80;;;;;;5054586;28;20050;-70
2021/03/28 07:34:07;;;;;;;14.00;4.03;;;7.60;73.10;;;;;;5073280;28;20094;-72
2021/03/28 07:37:17;;;;;;;14.83;4.40;;;7.70;72.70;;;;;;5072380;28;20080;-71
2021/03/28 07:40:02;;;;;;;18.17;4.30;;;7.80;72.00;;;;;;5054517;28;20037;-70
2021/03/28 07:42:52;;;;;;;14.70;4.40;;;7.70;71.80;;;;;;5072141;28;20531;-71
2021/03/28 07:45:32;;;;;;;12.45;4.00;;;7.70;71.90;;;;;;5072699;28;20230;-70
2021/03/28 07:48:24;;;;;;;16.73;4.43;;;7.80;72.20;;;;;;5072585;28;20052;-70
2021/03/28 07:51:33;;;;;;;12.70;4.10;;;7.80;71.60;;;;;;5071978;28;20090;-71
2021/03/28 07:54:36;;;;;;;15.77;4.00;;;7.80;71.60;;;;;;5072305;28;20119;-71
2021/03/28 07:57:26;;;;;;;17.17;4.83;;;7.80;71.60;;;;;;5072192;28;20098;-71
2021/03/28 08:00:12;;;;;;;14.37;4.10;;;7.90;71.90;;;;;;5053950;28;20074;-70
2021/03/28 08:03:27;;;;;;;13.30;3.80;;;8.10;71.80;;;;;;5037718;28;20488;-71
2021/03/28 08:06:32;;;;;;;11.63;3.47;;;8.40;72.00;;;;;;5053751;28;20040;-71
2021/03/28 08:09:34;;;;;;;13.73;4.10;;;8.70;71.90;;;;;;5053941;28;20040;-71
2021/03/28 08:12:23;;;;;;;14.90;4.43;;;9.00;71.60;;;;;;5071435;28;20119;-71
2021/03/28 08:15:20;;;;;;;15.07;4.20;;;9.30;70.90;;;;;;5053856;28;20044;-71
2021/03/28 08:18:12;;;;;;;15.43;4.10;;;9.70;70.50;;;;;;5082304;28;20396;-71
2021/03/28 08:21:02;;;;;;;11.75;3.65;;;10.00;69.60;;;;;;5091326;28;20548;-70
2021/03/28 08:23:55;;;;;;;12.85;4.30;;;10.40;69.30;;;;;;5091588;28;20483;-71
2021/03/28 08:26:42;;;;;;;13.68;3.80;;;10.60;68.20;;;;;;5073168;28;20488;-67
2021/03/28 08:29:31;;;;;;;15.27;4.10;;;10.70;67.50;;;;;;5092049;28;20058;-67
2021/03/28 08:32:10;;;;;;;14.65;3.88;;;10.90;67.40;;;;;;5091538;28;20499;-66
2021/03/28 08:35:13;;;;;;;11.57;3.83;;;11.10;66.60;;;;;;5073563;28;20041;-73
2021/03/28 08:38:00;;;;;;;14.82;3.75;;;11.40;66.00;;;;;;5092077;28;20070;-73
2021/03/28 08:41:03;;;;;;;13.00;4.03;;;11.90;66.40;;;;;;5072993;28;20511;-74
2021/03/28 08:43:54;;;;;;;11.95;3.80;;;13.00;66.40;;;;;;5091722;28;20066;-74
2021/03/28 08:46:57;;;;;;;11.10;3.40;;;14.40;65.40;;;;;;5107947;22;20131;-71
2021/03/28 08:49:46;;;;;;;11.75;3.45;;;15.80;63.70;;;;;;5064988;28;20051;-71
2021/03/28 08:52:39;;;;;;;11.93;3.80;;;16.80;60.90;;;;;;5053198;28;20032;-71
2021/03/28 08:55:29;;;;;;;11.20;3.72;;;16.60;56.60;;;;;;5070375;28;20036;-71
2021/03/28 08:58:34;;;;;;;11.55;3.90;;;16.40;57.90;;;;;;5022703;28;20063;-71
2021/03/28 09:01:23;;;;;;;12.27;3.72;;;17.60;58.50;;;;;;5049745;28;20061;-71
2021/03/28 09:04:03;;;;;;;13.20;3.60;;;18.90;54.90;;;;;;5049463;28;20036;-72
2021/03/28 09:06:56;;;;;;;12.25;3.60;;;18.40;50.90;;;;;;5049604;28;20029;-71
2021/03/28 09:10:00;;;;;;;10.68;3.53;;;17.30;49.40;;;;;;5050291;28;20128;-71
2021/03/28 09:12:54;;;;;;;13.48;3.83;;;15.80;50.70;;;;;;5050474;28;20044;-70
2021/03/28 09:15:29;;;;;;;14.45;3.67;;;15.00;52.30;;;;;;5050371;28;20068;-70
2021/03/28 09:18:17;;;;;;;14.48;3.80;;;14.80;53.00;;;;;;5050776;28;20051;-72
2021/03/28 09:21:12;;;;;;;10.70;3.33;;;15.10;54.60;;;;;;5050328;28;20088;-72
2021/03/28 09:23:56;;;;;;;10.63;3.00;;;16.60;55.80;;;;;;5054152;28;20045;-70
2021/03/28 09:26:39;;;;;;;12.02;3.65;;;17.90;52.90;;;;;;5032924;28;20059;-73
2021/03/28 09:29:35;;;;;;;8.70;3.08;;;18.10;49.10;;;;;;5050671;28;20094;-73
2021/03/28 09:32:06;;;;;;;10.60;3.33;;;17.30;48.50;;;;;;5049231;28;20412;-72
2021/03/28 09:35:07;;;;;;;10.73;3.03;;;17.10;49.20;;;;;;5050830;28;20542;-71
2021/03/28 09:38:03;;;;;;;10.77;3.15;;;17.40;50.20;;;;;;5050294;28;20453;-70
2021/03/28 09:41:07;;;;;;;11.98;3.40;;;19.20;50.80;;;;;;5036061;28;20041;-70
2021/03/28 09:43:53;;;;;;;10.18;3.13;;;20.80;48.00;;;;;;5012792;28;20051;-72
2021/03/28 09:46:37;;;;;;;10.32;3.17;;;21.30;45.70;;;;;;5054117;28;20489;-68
2021/03/28 09:49:30;;;;;;;9.38;2.60;;;21.30;44.10;;;;;;5054594;28;20048;-69
2021/03/28 09:52:19;;;;;;;9.15;2.85;;;20.80;43.70;;;;;;5054001;28;20489;-70
2021/03/28 09:55:10;;;;;;;10.43;2.63;;;21.90;44.90;;;;;;5054724;28;20401;-70
2021/03/28 09:58:03;;;;;;;10.18;2.95;;;24.00;42.80;;;;;;5054036;28;20041;-69
2021/03/28 10:00:54;;;;;;;8.65;3.03;;;25.70;40.00;;;;;;5053965;28;20102;-71
2021/03/28 10:03:22;;;;;;;9.13;2.83;;;26.00;36.60;;;;;;5054614;28;20041;-70
2021/03/28 10:05:58;;;;;;;11.25;3.00;;;26.10;37.40;;;;;;5053940;28;20043;-70
2021/03/28 10:08:25;;;;;;;9.10;2.70;;;26.60;35.90;;;;;;5054412;28;20037;-70
2021/03/28 10:11:14;;;;;;;9.65;2.88;;;25.20;33.20;;;;;;5053628;28;20136;-69
2021/03/28 10:14:38;;;;;;;7.57;2.30;;;22.90;33.90;;;;;;5054433;28;20182;-70
2021/03/28 10:17:24;;;;;;;9.05;2.80;;;20.50;35.40;;;;;;4898790;29;20562;-69
2021/03/28 10:19:54;;;;;;;9.27;2.50;;;18.60;37.70;;;;;;5053691;28;20450;-69
2021/03/28 10:22:51;;;;;;;11.52;2.90;;;17.50;38.40;;;;;;5035845;28;20106;-69
2021/03/28 10:25:50;;;;;;;10.60;2.70;;;16.30;40.50;;;;;;5053804;28;20045;-69
2021/03/28 10:28:46;;;;;;;11.55;3.10;;;15.30;42.30;;;;;;5053581;28;20040;-68
2021/03/28 10:31:29;;;;;;;9.10;2.60;;;14.70;44.30;;;;;;5053367;28;20047;-69
2021/03/28 10:34:25;;;;;;;10.43;2.92;;;14.50;45.90;;;;;;5036130;28;20032;-69
2021/03/28 10:37:04;;;;;;;9.77;2.80;;;14.80;46.70;;;;;;5053155;28;20041;-69
2021/03/28 10:39:47;;;;;;;9.10;2.70;;;15.50;46.50;;;;;;5035775;28;20557;-69
2021/03/28 10:42:43;;;;;;;8.43;2.33;;;16.00;46.50;;;;;;5035493;28;20029;-69
2021/03/28 10:45:16;;;;;;;10.93;2.72;;;16.50;45.90;;;;;;5035240;28;20041;-69
2021/03/28 10:48:19;;;;;;;7.13;2.40;;;16.60;44.10;;;;;;5035903;28;20060;-70
2021/03/28 10:51:03;;;;;;;11.40;3.08;;;16.00;43.20;;;;;;5052785;28;20408;-69
2021/03/28 10:53:54;;;;;;;10.20;2.95;;;15.30;45.10;;;;;;5053478;28;20111;-69
2021/03/28 10:56:50;;;;;;;9.70;2.75;;;15.10;46.30;;;;;;5035033;28;20045;-69
2021/03/28 10:59:40;;;;;;;8.82;2.80;;;15.30;46.90;;;;;;5052834;28;20041;-69
2021/03/28 11:02:43;;;;;;;11.93;3.10;;;15.50;47.00;;;;;;5035221;28;20047;-69
2021/03/28 11:05:42;;;;;;;9.10;2.72;;;15.70;46.70;;;;;;5052962;28;20037;-70
2021/03/28 11:08:46;;;;;;;8.48;2.70;;;15.60;46.60;;;;;;5034918;28;20041;-69
2021/03/28 11:11:11;;;;;;;10.63;2.75;;;15.70;46.80;;;;;;4964731;28;20043;-69
2021/03/28 11:13:59;;;;;;;9.40;3.10;;;15.60;46.70;;;;;;5053147;28;20033;-69
2021/03/28 11:16:48;;;;;;;10.25;2.88;;;15.60;46.80;;;;;;5052742;28;20040;-69
2021/03/28 11:19:52;;;;;;;8.93;2.53;;;15.40;46.40;;;;;;5052698;28;20033;-69
2021/03/28 11:22:44;;;;;;;8.38;2.47;;;15.10;47.40;;;;;;5052341;28;20040;-69
2021/03/28 11:25:16;;;;;;;10.85;2.55;;;15.00;48.30;;;;;;5053041;28;20099;-69
2021/03/28 11:27:54;;;;;;;9.55;2.30;;;15.10;48.10;;;;;;5052653;28;20060;-68
2021/03/28 11:30:38;;;;;;;10.65;2.60;;;14.90;47.40;;;;;;5052817;28;20087;-70
2021/03/28 11:33:33;;;;;;;6.72;2.30;;;14.40;48.00;;;;;;5051370;28;20040;-67
2021/03/28 11:36:14;;;;;;;12.27;2.55;;;14.20;49.40;;;;;;5017829;28;20045;-69
2021/03/28 11:39:00;;;;;;;10.75;3.08;;;14.20;49.40;;;;;;5052559;28;20045;-67
2021/03/28 11:41:34;;;;;;;11.18;2.38;;;14.00;49.50;;;;;;5031437;28;20036;-70
2021/03/28 11:44:31;;;;;;;8.73;3.42;;;13.80;49.70;;;;;;5052735;28;20029;-68
2021/03/28 11:47:04;;;;;;;9.48;2.38;;;13.60;50.40;;;;;;5051729;28;20091;-69
2021/03/28 11:49:56;;;;;;;10.93;2.50;;;13.50;51.60;;;;;;5052169;28;20146;-67
2021/03/28 11:52:27;;;;;;;12.90;2.65;;;13.60;51.70;;;;;;5052099;28;20033;-68
2021/03/28 11:55:09;;;;;;;10.75;2.63;;;13.60;51.30;;;;;;5052418;28;20029;-68
2021/03/28 11:57:36;;;;;;;10.95;3.40;;;13.60;51.60;;;;;;5052152;28;20401;-68
2021/03/28 12:00:35;;;;;;;9.10;2.60;;;13.50;51.70;;;;;;5052149;28;20454;-68
2021/03/28 12:03:35;;;;;;;11.20;2.88;;;13.50;52.10;;;;;;5051768;28;20275;-68
2021/03/28 12:06:09;;;;;;;10.32;2.50;;;13.60;52.80;;;;;;5033153;28;20451;-68
2021/03/28 12:08:54;;;;;;;10.10;2.47;;;13.80;52.50;;;;;;5052125;28;20048;-68
2021/03/28 12:11:46;;;;;;;11.77;2.58;;;13.80;52.30;;;;;;5051478;28;20520;-68
2021/03/28 12:14:12;;;;;;;11.40;3.05;;;13.90;52.20;;;;;;5051663;28;20087;-69
2021/03/28 12:17:10;;;;;;;10.65;2.63;;;13.90;52.40;;;;;;5051899;28;20033;-68
2021/03/28 12:19:59;;;;;;;12.10;3.05;;;13.80;52.30;;;;;;4986631;28;20032;-68
2021/03/28 12:22:28;;;;;;;9.25;2.78;;;13.70;52.20;;;;;;5033369;28;20067;-68
2021/03/28 12:25:01;;;;;;;11.15;2.92;;;13.50;52.50;;;;;;5051785;28;20052;-67
2021/03/28 12:27:37;;;;;;;9.95;3.08;;;13.20;53.30;;;;;;5051318;28;20056;-68
2021/03/28 12:30:23;;;;;;;9.60;2.83;;;13.20;54.10;;;;;;5051609;28;20128;-68
2021/03/28 12:33:17;;;;;;;11.00;2.80;;;13.20;54.70;;;;;;5050932;28;20045;-68
2021/03/28 12:35:45;;;;;;;11.52;2.88;;;13.10;54.90;;;;;;5042843;28;20060;-68
2021/03/28 12:38:27;;;;;;;13.63;3.42;;;13.00;55.30;;;;;;5051701;28;20044;-68
2021/03/28 12:41:23;;;;;;;12.02;2.92;;;12.90;56.10;;;;;;5050808;28;20072;-68
2021/03/28 12:44:18;;;;;;;15.25;2.97;;;12.80;56.50;;;;;;5050991;28;20040;-68
2021/03/28 12:46:50;;;;;;;10.63;2.85;;;12.70;56.80;;;;;;5051389;28;20044;-69
2021/03/28 12:49:24;;;;;;;10.70;2.97;;;12.60;57.30;;;;;;5051226;28;20060;-72
2021/03/28 12:52:13;;;;;;;14.00;2.63;;;12.50;57.60;;;;;;5050937;28;20090;-71
2021/03/28 12:55:01;;;;;;;12.60;2.83;;;12.50;58.20;;;;;;5035318;28;20127;-72
2021/03/28 12:58:07;;;;;;;11.27;2.83;;;12.30;58.90;;;;;;5032670;28;20025;-71
2021/03/28 13:00:56;;;;;;;11.05;2.88;;;12.20;59.40;;;;;;5015171;28;20048;-71
2021/03/28 13:03:45;;;;;;;10.30;2.83;;;12.10;59.80;;;;;;5051204;28;20037;-71
2021/03/28 13:06:31;;;;;;;11.60;2.92;;;12.00;60.50;;;;;;5049441;28;20037;-70
2021/03/28 13:09:17;;;;;;;12.20;3.25;;;11.90;61.50;;;;;;5050667;28;20033;-72
2021/03/28 13:11:52;;;;;;;9.15;3.05;;;11.90;62.00;;;;;;5050772;28;20163;-73
2021/03/28 13:14:31;;;;;;;13.77;3.20;;;11.80;62.40;;;;;;5049735;28;20489;-72
2021/03/28 13:16:59;;;;;;;9.80;3.00;;;11.70;63.30;;;;;;5050924;28;20627;-73
2021/03/28 13:19:28;;;;;;;9.85;2.90;;;11.70;64.40;;;;;;5032630;28;20516;-73
2021/03/28 13:22:00;;;;;;;11.68;3.22;;;11.90;64.60;;;;;;5050612;28;20116;-74
2021/03/28 13:24:27;;;;;;;11.57;3.22;;;11.90;64.60;;;;;;5050369;28;20492;-72
2021/03/28 13:27:11;;;;;;;10.10;3.20;;;11.90;64.70;;;;;;5050712;28;20036;-73
2021/03/28 13:29:40;;;;;;;11.45;3.20;;;11.90;65.50;;;;;;5050443;28;20041;-73
2021/03/28 13:32:21;;;;;;;11.02;3.22;;;11.90;65.90;;;;;;5050503;28;20051;-73
2021/03/28 13:34:47;;;;;;;11.68;3.67;;;12.00;65.90;;;;;;5050422;28;20041;-74
2021/03/28 13:37:27;;;;;;;13.50;3.40;;;12.00;66.20;;;;;;5050683;28;20382;-73
2021/03/28 13:39:59;;;;;;;9.32;3.15;;;11.90;66.50;;;;;;5032251;28;20120;-73
2021/03/28 13:42:30;;;;;;;11.60;3.40;;;11.90;67.10;;;;;;5032737;28;20048;-73
2021/03/28 13:44:57;;;;;;;;;;;12.00;67.30;;;;;;5050682;28;20144;-73
2021/03/28 13:47:43;;;;;;;11.38;3.30;;;11.90;67.10;;;;;;5049379;28;20343;-74
2021/03/28 13:50:27;;;;;;;11.43;3.35;;;11.70;67.10;;;;;;5048973;28;20041;-73
2021/03/28 13:52:53;;;;;;;12.63;3.75;;;11.50;68.10;;;;;;5032619;28;20033;-68
2021/03/28 13:55:34;;;;;;;11.02;3.22;;;11.50;68.80;;;;;;5050305;28;20041;-69
2021/03/28 13:58:19;;;;;;;;;;;11.50;69.40;;;;;;5050591;28;20497;-68
2021/03/28 14:00:50;;;;;;;13.10;3.63;;;11.50;69.50;;;;;;5049134;28;19924;-68
2021/03/28 14:03:37;;;;;;;14.13;3.45;;;11.60;70.10;;;;;;5015579;28;20041;-69
2021/03/28 14:06:23;;;;;;;11.50;3.50;;;11.70;70.30;;;;;;5050386;28;20033;-68
2021/03/28 14:09:16;;;;;;;14.48;3.55;;;11.60;70.10;;;;;;5050222;28;20037;-67
2021/03/28 14:11:54;;;;;;;10.52;3.40;;;11.60;70.60;;;;;;5049397;28;20049;-70
2021/03/28 14:14:45;;;;;;;8.95;3.53;;;11.60;70.50;;;;;;5032795;28;20037;-68
2021/03/28 14:17:19;;;;;;;12.32;3.67;;;11.50;70.90;;;;;;5050522;28;20037;-69
2021/03/28 14:19:46;;;;;;;11.88;3.70;;;11.50;71.40;;;;;;5032838;28;20037;-69
2021/03/28 14:22:29;;;;;;;13.80;3.80;;;11.50;71.70;;;;;;5032053;28;20463;-69
2021/03/28 14:24:59;;;;;;;9.50;3.60;;;11.60;72.20;;;;;;5052250;28;20040;-69
2021/03/28 14:27:32;;;;;;;14.18;4.22;;;11.70;72.50;;;;;;5053806;28;20066;-69